createdAt,value
2022-10-17T00:00:40.673Z,7.90
2022-10-17T00:05:46.515Z,8.35
2022-10-17T00:11:00.837Z,9.45
2022-10-17T00:16:03.413Z,10.52
2022-10-17T00:21:06.529Z,8.18
2022-10-17T00:26:10.316Z,8.23
2022-10-17T00:31:13.118Z,6.22
2022-10-17T00:36:19.072Z,9.45
2022-10-17T00:41:24.877Z,7.40
2022-10-17T00:46:30.455Z,12.38
2022-10-17T00:51:45.386Z,11.25
2022-10-17T00:56:48.806Z,6.93
2022-10-17T01:02:01.385Z,9.38
2022-10-17T01:07:03.970Z,8.43
2022-10-17T01:12:20.144Z,6.82
2022-10-17T01:17:31.853Z,7.15
2022-10-17T01:22:57.357Z,6.65
2022-10-17T01:28:30.556Z,7.68
2022-10-17T01:33:38.272Z,10.27
2022-10-17T01:38:50.646Z,7.38
2022-10-17T01:44:03.747Z,6.05
2022-10-17T01:49:10.340Z,6.47
2022-10-17T01:54:24.721Z,9.90
2022-10-17T01:59:41.338Z,6.18
2022-10-17T02:04:45.029Z,7.63
2022-10-17T02:09:47.666Z,11.88
2022-10-17T02:15:08.475Z,14.93
2022-10-17T02:25:46.507Z,7.50
2022-10-17T02:30:58.173Z,6.60
2022-10-17T02:36:06.306Z,7.28
2022-10-17T02:41:12.776Z,9.15
2022-10-17T02:46:21.275Z,8.90
2022-10-17T02:51:56.465Z,8.50
2022-10-17T02:57:18.733Z,7.75
2022-10-17T03:02:21.596Z,9.07
2022-10-17T03:07:24.225Z,8.38
2022-10-17T03:12:27.142Z,7.47
2022-10-17T03:17:29.984Z,8.93
2022-10-17T03:22:32.840Z,6.65
2022-10-17T03:27:38.025Z,5.93
2022-10-17T03:32:40.809Z,11.80
2022-10-17T03:37:44.183Z,6.38
2022-10-17T03:42:46.777Z,8.00
2022-10-17T03:47:49.590Z,7.72
2022-10-17T03:52:52.286Z,11.65
2022-10-17T03:57:55.157Z,7.30
2022-10-17T04:02:59.140Z,9.25
2022-10-17T04:08:04.738Z,8.52
2022-10-17T04:13:26.392Z,9.60
2022-10-17T04:18:29.269Z,10.15
2022-10-17T04:23:32.933Z,10.00
2022-10-17T04:28:44.279Z,11.75
2022-10-17T04:33:48.102Z,10.90
2022-10-17T04:38:50.901Z,14.20
2022-10-17T04:43:55.106Z,9.70
2022-10-17T04:48:58.472Z,10.35
2022-10-17T04:54:01.273Z,14.18
2022-10-17T04:59:04.646Z,9.20
2022-10-17T05:04:07.991Z,9.02
2022-10-17T05:09:11.215Z,7.18
2022-10-17T05:14:13.835Z,7.40
2022-10-17T05:19:17.319Z,7.18
2022-10-17T05:24:23.288Z,11.35
2022-10-17T05:29:26.584Z,12.70
2022-10-17T05:34:38.357Z,15.65
2022-10-17T05:39:41.317Z,11.15
2022-10-17T05:44:45.562Z,10.10
2022-10-17T05:49:52.503Z,15.43
2022-10-17T05:55:06.505Z,10.45
2022-10-17T06:00:10.006Z,13.38
2022-10-17T06:05:21.364Z,16.13
2022-10-17T06:10:24.240Z,9.52
2022-10-17T06:15:26.944Z,6.63
2022-10-17T06:20:45.253Z,21.23
2022-10-17T06:25:51.498Z,10.85
2022-10-17T06:30:54.289Z,13.23
2022-10-17T06:35:57.766Z,10.85
2022-10-17T06:41:09.122Z,13.68
2022-10-17T06:46:12.596Z,14.65
2022-10-17T06:51:27.668Z,12.30
2022-10-17T06:56:32.676Z,10.55
2022-10-17T07:01:55.917Z,13.10
2022-10-17T07:07:03.203Z,9.85
2022-10-17T07:12:08.643Z,8.23
2022-10-17T07:17:13.457Z,12.45
2022-10-17T07:22:17.705Z,11.35
2022-10-17T07:27:23.335Z,9.63
2022-10-17T07:32:26.861Z,10.02
2022-10-17T07:37:30.001Z,10.30
2022-10-17T07:42:42.399Z,15.93
2022-10-17T07:47:46.341Z,12.70
2022-10-17T07:52:51.491Z,10.27
2022-10-17T07:57:54.113Z,10.07
2022-10-17T08:02:56.745Z,12.88
2022-10-17T08:08:00.062Z,12.02
2022-10-17T08:13:03.265Z,12.07
2022-10-17T08:18:05.891Z,13.68
2022-10-17T08:23:08.831Z,13.73
2022-10-17T08:28:11.376Z,18.20
2022-10-17T08:33:13.955Z,12.18
2022-10-17T08:38:20.018Z,13.00
2022-10-17T08:44:03.055Z,17.27
2022-10-17T08:49:20.922Z,18.10
2022-10-17T08:54:39.052Z,19.77
2022-10-17T08:59:43.836Z,16.17
2022-10-17T09:05:08.134Z,11.95
2022-10-17T09:10:27.560Z,15.02
2022-10-17T09:15:49.876Z,16.05
2022-10-17T09:26:01.789Z,13.90
2022-10-17T09:31:22.688Z,16.30
2022-10-17T09:36:34.785Z,16.20
2022-10-17T09:47:04.252Z,19.40
2022-10-17T09:52:19.963Z,14.80
2022-10-17T09:57:22.755Z,13.13
2022-10-17T10:02:27.392Z,12.70
2022-10-17T10:07:35.720Z,14.98
2022-10-17T10:12:39.633Z,12.48
2022-10-17T10:17:42.827Z,15.88
2022-10-17T10:22:46.283Z,10.32
2022-10-17T10:27:48.990Z,11.63
2022-10-17T10:32:52.061Z,12.63
2022-10-17T10:37:57.729Z,15.07
2022-10-17T10:43:05.345Z,13.98
2022-10-17T10:48:30.910Z,14.20
2022-10-17T10:53:57.072Z,13.10
2022-10-17T10:59:19.384Z,11.23
2022-10-17T11:04:40.341Z,11.93
2022-10-17T11:10:00.350Z,14.50
2022-10-17T11:15:32.839Z,13.38
2022-10-17T11:20:53.605Z,16.98
2022-10-17T11:26:02.842Z,13.93
2022-10-17T11:31:13.507Z,19.27
2022-10-17T11:36:19.903Z,13.52
2022-10-17T11:41:55.443Z,15.05
2022-10-17T11:47:03.839Z,16.67
2022-10-17T11:57:56.838Z,15.48
2022-10-17T12:03:11.010Z,13.98
2022-10-17T12:08:50.541Z,16.63
2022-10-17T12:13:55.247Z,16.67
2022-10-17T12:19:00.614Z,17.73
2022-10-17T12:24:03.264Z,20.40
2022-10-17T12:29:32.574Z,15.25
2022-10-17T12:34:35.270Z,18.42
2022-10-17T12:39:37.869Z,17.80
2022-10-17T12:44:40.527Z,16.38
2022-10-17T12:49:45.636Z,14.93
2022-10-17T12:55:24.713Z,15.68
2022-10-17T13:00:59.527Z,18.80
2022-10-17T13:06:13.777Z,17.92
2022-10-17T13:11:16.466Z,19.55
2022-10-17T13:16:40.278Z,17.20
2022-10-17T13:22:01.084Z,17.50
2022-10-17T13:27:28.765Z,19.98
2022-10-17T13:32:40.814Z,18.58
2022-10-17T13:37:50.253Z,18.10
2022-10-17T13:42:57.896Z,20.33
2022-10-17T13:48:04.523Z,21.60
2022-10-17T13:53:13.231Z,22.38
2022-10-17T13:58:17.575Z,20.17
2022-10-17T14:03:22.291Z,16.17
2022-10-17T14:08:25.272Z,20.58
2022-10-17T14:13:33.829Z,22.25
2022-10-17T14:18:37.657Z,21.30
2022-10-17T14:23:43.594Z,23.83
2022-10-17T14:29:04.384Z,20.85
2022-10-17T14:34:07.096Z,23.52
2022-10-17T14:39:21.031Z,24.25
2022-10-17T14:44:29.076Z,22.42
2022-10-17T14:49:33.333Z,22.17
2022-10-17T14:54:37.605Z,23.05
2022-10-17T14:59:53.801Z,22.67
2022-10-17T15:04:57.143Z,20.77
2022-10-17T15:10:00.057Z,21.80
2022-10-17T15:15:02.740Z,21.83
2022-10-17T15:20:14.327Z,22.13
2022-10-17T15:25:16.944Z,21.67
2022-10-17T15:30:32.468Z,20.20
2022-10-17T15:35:37.102Z,22.27
2022-10-17T15:40:41.650Z,21.00
2022-10-17T15:45:44.248Z,20.50
2022-10-17T15:50:46.920Z,17.55
2022-10-17T15:55:51.065Z,21.42
2022-10-17T16:00:53.915Z,20.10
2022-10-17T16:05:57.146Z,20.63
2022-10-17T16:10:59.728Z,20.30
2022-10-17T16:16:02.273Z,19.08
2022-10-17T16:21:05.045Z,19.65
2022-10-17T16:26:07.817Z,24.08
2022-10-17T16:31:31.335Z,19.45
2022-10-17T16:36:34.477Z,20.25
2022-10-17T16:41:39.421Z,19.75
2022-10-17T16:46:42.062Z,20.05
2022-10-17T16:51:44.754Z,19.55
2022-10-17T16:56:47.478Z,23.13
2022-10-17T17:01:50.541Z,21.25
2022-10-17T17:06:53.205Z,21.25
2022-10-17T17:11:55.767Z,20.27
2022-10-17T17:16:58.375Z,20.52
2022-10-17T17:22:01.057Z,18.00
2022-10-17T17:27:03.641Z,18.27
2022-10-17T17:32:06.331Z,20.50
2022-10-17T17:37:08.932Z,20.75
2022-10-17T17:42:14.960Z,25.00
2022-10-17T17:47:20.738Z,19.13
2022-10-17T17:52:23.307Z,17.58
2022-10-17T17:57:25.945Z,21.75
2022-10-17T18:02:28.780Z,19.63
2022-10-17T18:07:31.640Z,16.52
2022-10-17T18:12:37.361Z,23.60
2022-10-17T18:17:40.191Z,22.95
2022-10-17T18:22:42.848Z,19.88
2022-10-17T18:27:48.067Z,19.33
2022-10-17T18:32:51.101Z,19.20
2022-10-17T18:37:56.565Z,23.60
2022-10-17T18:42:59.227Z,19.15
2022-10-17T18:48:01.919Z,21.58
2022-10-17T18:53:05.130Z,21.80
2022-10-17T18:58:07.730Z,21.65
2022-10-17T19:03:10.580Z,20.25
2022-10-17T19:08:15.104Z,24.88
2022-10-17T19:13:21.479Z,19.05
2022-10-17T19:18:24.461Z,17.35
2022-10-17T19:23:27.051Z,23.92
2022-10-17T19:28:29.806Z,17.48
2022-10-17T19:33:32.943Z,22.27
2022-10-17T19:38:36.557Z,23.40
2022-10-17T19:43:40.913Z,25.52
2022-10-17T19:48:44.512Z,23.85
2022-10-17T19:53:47.669Z,23.80
2022-10-17T19:58:51.185Z,23.17
2022-10-17T20:03:54.527Z,24.90
2022-10-17T20:08:57.304Z,24.35
2022-10-17T20:14:01.900Z,20.13
2022-10-17T20:19:08.776Z,21.05
2022-10-17T20:24:14.847Z,21.17
2022-10-17T20:29:20.188Z,20.77
2022-10-17T20:34:22.996Z,19.08
2022-10-17T20:39:25.676Z,21.50
2022-10-17T20:44:28.259Z,22.85
2022-10-17T20:49:31.896Z,19.60
2022-10-17T20:54:34.539Z,20.25
2022-10-17T20:59:37.736Z,22.25
2022-10-17T21:04:46.327Z,19.15
2022-10-17T21:09:49.632Z,19.10
2022-10-17T21:14:52.193Z,18.08
2022-10-17T21:19:54.830Z,16.92
2022-10-17T21:24:57.446Z,15.52
2022-10-17T21:30:00.057Z,16.05
2022-10-17T21:35:02.718Z,16.85
2022-10-17T21:40:06.174Z,16.40
2022-10-17T21:45:15.358Z,18.08
2022-10-17T21:50:22.705Z,17.90
2022-10-17T21:55:25.302Z,18.17
2022-10-17T22:00:27.907Z,17.33
2022-10-17T22:05:31.543Z,16.85
2022-10-17T22:10:37.184Z,13.82
2022-10-17T22:15:39.783Z,16.80
2022-10-17T22:20:42.323Z,18.00
2022-10-17T22:25:53.588Z,13.85
2022-10-17T22:30:56.210Z,14.43
2022-10-17T22:35:59.205Z,13.40
2022-10-17T22:41:02.300Z,15.45
2022-10-17T22:46:06.953Z,16.73
2022-10-17T22:51:10.009Z,14.25
2022-10-17T22:56:16.982Z,15.95
2022-10-17T23:01:22.299Z,14.77
2022-10-17T23:06:24.974Z,17.38
2022-10-17T23:11:27.600Z,18.42
2022-10-17T23:16:30.311Z,14.13
2022-10-17T23:21:32.858Z,15.30
2022-10-17T23:26:35.413Z,18.77
2022-10-17T23:31:37.996Z,18.63
2022-10-17T23:36:40.571Z,15.57
2022-10-17T23:41:43.155Z,14.02
2022-10-17T23:46:45.791Z,14.70
2022-10-17T23:51:48.404Z,14.98
2022-10-17T23:56:50.965Z,13.07
